Ghardaia, Algeria
Current Conditions -  °F | °C
As of 1:00 PM on Tuesday 21 Oct 2014 (Local Time) from DAUG Reporting Station
Clear Clear  
Wind Chill: 90°   Ceiling: Unl
Heat Index: 90°   Visibility: 6mi
Dew Point: 32°   Wind: 9mph
Humidity: 13%   Direction: 10°N
Pressure: 30.12"   Gusts: NA
Location:  32.49°N, 3.68°E
Report Text: DAUG 211200Z 01008KT CAVOK 32/M00 Q1020
Loading
Personal Weather Stations






























Interactive Weather Map
Tropical Storm Tracking
New forecast layout! Learn more

10-Day Weather Forecast

Advertisements
Track Severe Weather on mobile